Salinas Municipal Airport Salinas US
ICAO: KSNS
IATA: SNS
Category: Medium
Scheduled Services: No

Elevation: 85 ft
TransAlt. 18000 ft.

Airport Communications:
NORCAL APP/DEP:127.15
ATIS:124.85
CTAF:119.4
GND:121.7
OAKLAND RDO:122.6
TWR:119.4
UNICOM:122.95

KSNS Zoom In..

If you have problems with the map follow the link
https://www.worldairports.se/pages/airport.php?
ICAO=KSNS

Runways:

(A) RW 08 length 6004 ft width 150 ft
---- / hdg 81

(B) RW 13 length 4825 ft width 150 ft
---- / hdg 132

(C) RW 26 length 6004 ft width 150 ft
---- / hdg 261

(D) RW 31 length 4825 ft width 150 ft
ILS 108.50 / hdg 312

Location; KSNS
Day. 14 / Time. 14.53 Zulu
* Altimeter: 30.10
* Temperature: 11° c. 51.8°f.
* Wind from: 260° Speed 04 kn.
Dewpoint: 09° c.
Visibility: 10 Statute Miles.
Clouds: Clear (automated report).

KSNS 141453Z 26004KT 10SM CLR 11/09 A3010 RMK AO2 SLP200 T01060089 53008


Wind From 260°
Speed 04 kn.

 
 
jpsmedia worldairports.se 2019   terms of use